createdAt,value
2022-10-31T00:07:46.334Z,5.20
2022-10-31T00:22:32.992Z,8.33
2022-10-31T00:25:47.814Z,5.37
2022-10-31T00:32:01.974Z,6.30
2022-10-31T00:35:34.118Z,6.67
2022-10-31T00:44:55.653Z,6.80
2022-10-31T00:51:01.141Z,5.20
2022-10-31T00:54:06.974Z,6.77
2022-10-31T00:57:15.871Z,10.23
2022-10-31T00:59:56.311Z,7.13
2022-10-31T01:02:33.454Z,7.80
2022-10-31T01:05:02.169Z,9.37
2022-10-31T01:07:48.045Z,6.33
2022-10-31T01:10:38.602Z,6.00
2022-10-31T01:23:32.900Z,8.43
2022-10-31T01:26:32.177Z,7.30
2022-10-31T01:29:46.180Z,10.07
2022-10-31T01:32:50.201Z,9.87
2022-10-31T01:38:46.447Z,6.27
2022-10-31T01:41:42.424Z,5.67
2022-10-31T01:44:55.632Z,7.07
2022-10-31T01:48:14.061Z,11.60
2022-10-31T01:51:01.077Z,10.97
2022-10-31T01:53:53.649Z,9.03
2022-10-31T01:56:38.382Z,14.87
2022-10-31T01:59:16.600Z,11.57
2022-10-31T02:01:46.920Z,10.07
2022-10-31T02:04:24.611Z,14.37
2022-10-31T02:06:59.709Z,11.27
2022-10-31T02:09:45.017Z,11.60
2022-10-31T02:12:18.475Z,9.87
2022-10-31T02:15:41.622Z,10.17
2022-10-31T02:22:01.331Z,16.50
2022-10-31T02:25:30.471Z,11.27
2022-10-31T02:28:36.552Z,13.10
2022-10-31T02:31:34.602Z,14.87
2022-10-31T02:34:15.929Z,17.00
2022-10-31T02:37:24.164Z,13.33
2022-10-31T02:40:14.185Z,13.40
2022-10-31T02:42:56.106Z,14.03
2022-10-31T02:45:37.906Z,14.33
2022-10-31T02:48:43.402Z,13.77
2022-10-31T02:51:34.067Z,13.27
2022-10-31T02:54:26.567Z,15.63
2022-10-31T02:57:21.884Z,13.53
2022-10-31T03:00:08.307Z,14.17
2022-10-31T03:03:03.571Z,13.73
2022-10-31T03:05:57.149Z,17.40
2022-10-31T03:08:30.140Z,14.23
2022-10-31T03:11:10.328Z,14.50
2022-10-31T03:14:09.083Z,16.43
2022-10-31T03:23:46.303Z,15.90
2022-10-31T03:26:43.322Z,15.20
2022-10-31T03:29:35.006Z,13.97
2022-10-31T03:32:31.625Z,21.30
2022-10-31T03:35:17.127Z,19.23
2022-10-31T03:38:29.509Z,12.33
2022-10-31T03:41:34.243Z,14.10
2022-10-31T03:44:18.200Z,16.57
2022-10-31T03:48:10.837Z,26.87
2022-10-31T03:50:45.142Z,17.70
2022-10-31T03:53:51.945Z,15.93
2022-10-31T03:57:06.456Z,16.37
2022-10-31T03:59:47.043Z,16.23
2022-10-31T04:02:33.618Z,20.27
2022-10-31T04:05:18.330Z,20.47
2022-10-31T04:07:54.338Z,20.37
2022-10-31T04:10:35.523Z,19.00
2022-10-31T04:13:33.983Z,22.50
2022-10-31T04:24:21.202Z,20.87
2022-10-31T04:27:05.190Z,20.53
2022-10-31T04:30:29.338Z,22.43
2022-10-31T04:33:26.627Z,22.93
2022-10-31T04:36:01.632Z,24.10
2022-10-31T04:41:50.444Z,22.40
2022-10-31T04:44:45.603Z,24.27
2022-10-31T04:48:04.452Z,23.37
2022-10-31T04:51:28.406Z,27.70
2022-10-31T04:54:18.244Z,25.97
2022-10-31T04:57:12.821Z,25.43
2022-10-31T05:00:09.127Z,28.67
2022-10-31T05:05:51.291Z,36.80
2022-10-31T05:09:03.391Z,25.53
2022-10-31T05:12:08.547Z,31.57
2022-10-31T05:18:55.553Z,31.13
2022-10-31T05:22:26.023Z,27.87
2022-10-31T05:25:22.241Z,34.30
2022-10-31T05:28:26.689Z,29.30
2022-10-31T05:31:03.335Z,28.90
2022-10-31T05:33:56.986Z,31.33
2022-10-31T05:36:42.723Z,30.57
2022-10-31T05:39:39.781Z,33.13
2022-10-31T05:42:31.019Z,33.87
2022-10-31T05:45:15.210Z,29.00
2022-10-31T05:48:28.575Z,32.50
2022-10-31T05:51:17.338Z,31.60
2022-10-31T05:54:03.066Z,34.00
2022-10-31T05:57:00.058Z,28.93
2022-10-31T05:59:43.244Z,31.17
2022-10-31T06:02:17.208Z,30.83
2022-10-31T06:04:53.451Z,36.87
2022-10-31T06:07:48.584Z,44.10
2022-10-31T06:10:28.919Z,50.53
2022-10-31T06:13:23.251Z,37.03
2022-10-31T06:16:39.317Z,49.20
2022-10-31T06:20:13.830Z,111.87
2022-10-31T06:23:18.771Z,53.50
2022-10-31T06:26:27.688Z,38.57
2022-10-31T06:29:04.391Z,55.03
2022-10-31T06:31:48.236Z,61.13
2022-10-31T06:34:29.598Z,66.07
2022-10-31T06:37:12.632Z,86.83
2022-10-31T06:39:59.994Z,68.63
2022-10-31T06:42:36.979Z,63.50
2022-10-31T06:45:28.800Z,90.70
2022-10-31T06:48:21.289Z,155.17
2022-10-31T06:53:51.658Z,67.63
2022-10-31T06:56:30.509Z,124.47
2022-10-31T06:59:33.888Z,103.87
2022-10-31T07:02:13.411Z,72.60
2022-10-31T07:04:48.293Z,64.17
2022-10-31T07:07:33.012Z,71.07
2022-10-31T07:13:31.318Z,62.00
2022-10-31T07:23:31.363Z,56.23
2022-10-31T07:26:50.939Z,49.93
2022-10-31T07:32:48.952Z,45.60
2022-10-31T07:35:39.860Z,49.10
2022-10-31T07:38:17.440Z,46.27
2022-10-31T07:41:27.296Z,54.20
2022-10-31T07:44:23.056Z,48.77
2022-10-31T07:47:16.034Z,48.17
2022-10-31T07:50:13.029Z,51.13
2022-10-31T07:53:26.575Z,49.50
2022-10-31T07:56:10.238Z,53.07
2022-10-31T07:59:04.797Z,72.73
2022-10-31T08:02:02.585Z,51.93
2022-10-31T08:05:14.155Z,51.57
2022-10-31T08:08:27.049Z,57.13
2022-10-31T08:11:34.261Z,56.53
2022-10-31T08:19:06.483Z,58.90
2022-10-31T08:26:58.034Z,88.33
2022-10-31T08:34:15.479Z,91.80
2022-10-31T08:37:15.804Z,109.13
2022-10-31T08:40:32.047Z,86.13
2022-10-31T08:44:09.130Z,75.77
2022-10-31T08:48:44.305Z,80.67
2022-10-31T08:51:21.280Z,69.20
2022-10-31T08:58:19.747Z,59.97
2022-10-31T15:37:13.037Z,36.03
2022-10-31T15:39:42.590Z,35.27
2022-10-31T15:42:28.481Z,39.10
2022-10-31T15:45:09.659Z,34.47
2022-10-31T15:47:51.989Z,43.20
2022-10-31T15:50:34.508Z,37.33
2022-10-31T15:53:04.610Z,48.53
2022-10-31T16:19:05.368Z,36.90
2022-10-31T16:22:04.089Z,36.40
2022-10-31T16:25:17.704Z,41.17
2022-10-31T16:28:40.366Z,37.37
2022-10-31T16:31:34.422Z,35.30
2022-10-31T16:34:26.699Z,37.70
2022-10-31T16:37:39.791Z,39.53
2022-10-31T16:40:35.373Z,35.23
2022-10-31T16:43:09.611Z,40.70
2022-10-31T16:45:57.785Z,40.80
2022-10-31T16:48:29.162Z,41.07
2022-10-31T16:51:38.133Z,39.30
2022-10-31T16:54:19.998Z,36.53
2022-10-31T16:56:59.160Z,40.27
2022-10-31T16:59:55.013Z,40.63
2022-10-31T17:02:33.937Z,42.00
2022-10-31T17:05:08.277Z,39.80
2022-10-31T17:07:54.432Z,40.03
2022-10-31T17:10:32.510Z,41.30
2022-10-31T17:16:11.528Z,43.73
2022-10-31T17:18:49.357Z,45.93
2022-10-31T17:21:27.883Z,38.20
2022-10-31T17:24:05.895Z,41.93
2022-10-31T17:26:43.907Z,38.43
2022-10-31T17:29:27.306Z,39.17
2022-10-31T17:32:10.378Z,40.57
2022-10-31T17:34:40.877Z,47.40
2022-10-31T17:37:12.312Z,40.53
2022-10-31T17:39:55.264Z,41.80
2022-10-31T17:43:03.085Z,47.27
2022-10-31T17:45:31.926Z,43.43
2022-10-31T17:48:02.123Z,44.47
2022-10-31T17:50:35.955Z,44.87
2022-10-31T17:53:11.906Z,42.27
2022-10-31T17:55:59.462Z,47.27
2022-10-31T17:58:51.232Z,40.37
2022-10-31T18:01:27.029Z,44.30
2022-10-31T18:03:58.695Z,42.23
2022-10-31T18:06:35.115Z,45.87
2022-10-31T18:09:08.315Z,43.60
2022-10-31T18:11:40.331Z,50.00
2022-10-31T18:14:13.005Z,42.07
2022-10-31T18:16:48.239Z,48.63
2022-10-31T18:19:24.637Z,47.30
2022-10-31T18:22:16.059Z,43.03
2022-10-31T18:24:50.814Z,41.57
2022-10-31T18:27:27.422Z,43.87
2022-10-31T18:30:12.676Z,43.07
2022-10-31T18:32:48.360Z,44.60
2022-10-31T18:35:59.160Z,48.27
2022-10-31T18:38:33.925Z,45.27
2022-10-31T18:41:09.973Z,43.87
2022-10-31T18:44:08.290Z,43.13
2022-10-31T18:46:37.088Z,39.70
2022-10-31T18:49:43.543Z,42.13
2022-10-31T18:52:11.843Z,49.87
2022-10-31T18:54:44.822Z,40.20
2022-10-31T18:57:15.049Z,47.07
2022-10-31T18:59:44.854Z,44.93
2022-10-31T19:02:16.013Z,42.50
2022-10-31T19:04:46.951Z,41.67
2022-10-31T19:07:15.133Z,40.33
2022-10-31T19:09:51.413Z,36.70
2022-10-31T19:12:19.693Z,37.27
2022-10-31T19:14:55.011Z,34.50
2022-10-31T19:17:29.664Z,36.80
2022-10-31T19:20:01.206Z,33.70
2022-10-31T19:22:32.055Z,29.17
2022-10-31T19:25:01.684Z,30.60
2022-10-31T19:27:44.219Z,24.50
2022-10-31T19:30:19.437Z,30.27
2022-10-31T19:32:47.736Z,30.00
2022-10-31T19:35:17.081Z,23.00
2022-10-31T19:37:45.520Z,24.50
2022-10-31T19:40:23.891Z,26.17
2022-10-31T19:42:52.220Z,29.00
2022-10-31T19:45:26.030Z,29.40
2022-10-31T19:47:54.644Z,22.27
2022-10-31T19:50:23.038Z,23.63
2022-10-31T19:52:58.679Z,29.27
2022-10-31T19:55:31.947Z,21.17
2022-10-31T19:58:05.852Z,21.07
2022-10-31T20:00:35.622Z,23.73
2022-10-31T20:03:04.242Z,23.27
2022-10-31T20:05:34.541Z,23.37
2022-10-31T20:08:11.201Z,19.00
2022-10-31T20:10:43.967Z,19.40
2022-10-31T20:13:12.103Z,24.37
2022-10-31T20:15:47.262Z,24.23
2022-10-31T20:18:15.529Z,17.50
2022-10-31T20:20:49.560Z,19.17
2022-10-31T20:23:22.999Z,18.87
2022-10-31T20:25:57.882Z,18.73
